RCTPZMUB

Guest
Details From RCTP - Taipei Chiang Kai Shek Intl
To ZMUB - Chinggis Khaan Intl
Flight Number -
Tags Generated
Created
Modified
Stats Distance 1,532 nm / 2,837 km
Max Altitude 0 ft / 0 m
Waypoints 3
Social Downloads 0
Likes 0
Share VATSIM

Download

Looking for another format? Having issues loading an existing format? Contact us
Advertisement - Login to hide

Notes

Generated

Route

RCTP B ZMUB

ID Type Via Altitude Latitude Longitude Leg Dist Tot Dist Heading (true) Name
O RCTP APT - 0 ft / 0 m 25.06173˚ 121.22370˚ - 0 nm - -
B NDB - 0 ft / 0 m 47.85703˚ 106.74782˚ 1531 nm 1531 nm 337° / 328° ULAANBAATAR NDB
O ZMUB APT - 0 ft / 0 m 47.84978˚ 106.75170˚ 0 nm 1531 nm 160° / 160° -

Altitude Profile

Advertisement - Login to hide

Weather


0- 5 10 15 20 25 30 35+ Temperature / ° C

Clouds and Precipitation
Forecast for 2018-05-21 18:00 UTC. Updated 4 hours ago

Ground ~20,000 ft ~40,000 ft Winds

RCTP

Details ICAO RCTP (TPE)
Name Taiwan Taoyuan International
Region Republic of China (Taiwan)
Timezone Asia/Taipei (UTC+8.0)
Stats Elevation 106 ft / 32 m (AMSL)
Location 25.077731° 121.232823°
Runways 2
Magnetic Variation 4.481° W

METAR

RCTP 212100Z VRB01KT 7000 FEW008 SCT150 25/24 Q1010 NOSIG RMK A2984

Decode

TAF

TAF RCTP 211700Z 2118/2224 02005KT 9999 FEW016 BKN032 TEMPO 2118/2123 11005KT TEMPO 2201/2208 02010KT TEMPO 2211/2215 33005KT BECMG 2215/2217 25005KT

Decode

Departure Runways

ID Width Length Bearing (true) Bearing (mag) Surface Threshold Offset Overrun Length
05 197 ft / 60 m 12,038 ft / 3,669 m 49.17° 53.65° Concrete 0 ft / 0 m 393 ft / 120 m
06 197 ft / 60 m 11,008 ft / 3,355 m 49.12° 53.60° Concrete 0 ft / 0 m 450 ft / 137 m
23 197 ft / 60 m 12,038 ft / 3,669 m 229.18° 233.66° Concrete 0 ft / 0 m 393 ft / 120 m
24 197 ft / 60 m 11,008 ft / 3,355 m 229.13° 233.61° Concrete 0 ft / 0 m 550 ft / 168 m

ZMUB

Details ICAO ZMUB (ULN)
Name CHINGGIS KHAAN INTL
Region Mongolia
Timezone Asia/Ulaanbaatar (UTC+8.0)
Stats Elevation 4,364 ft / 1,330 m (AMSL)
Location 47.842620° 106.762906°
Runways 2
Magnetic Variation 4.624° W

METAR

ZMUB 212130Z VRB01MPS CAVOK M07/M09 Q1015 NOSIG RMK QFE654.1 79

Decode

TAF

Not found

Destination Runways

ID Width Length Bearing (true) Bearing (mag) Surface Threshold Offset Overrun Length
14 197 ft / 60 m 10,158 ft / 3,096 m 138.21° 142.83° Asphalt 0 ft / 0 m 148 ft / 45 m
15 131 ft / 40 m 6,239 ft / 1,902 m 146.60° 151.22° Dirt 0 ft / 0 m 492 ft / 150 m
32 197 ft / 60 m 10,158 ft / 3,096 m 318.23° 322.85° Asphalt 0 ft / 0 m 0 ft / 0 m
33 131 ft / 40 m 6,239 ft / 1,902 m 326.61° 331.23° Dirt 0 ft / 0 m 0 ft / 0 m

Approach Navaids

Runway Type Ident Frequency Range Bearing (true) Bearing (mag) Slope Elevation
14 Localiser IDA 110.30 MHz 50 nm / 93 km 138.45° 143.07° - 4,364 ft / 1,330 m (AMSL)
14 Glidescope IDA 110.30 MHz 50 nm / 93 km 142.00° 146.62° 2.70° 4,147 ft / 1,264 m (AMSL)

Popular Alternatives